sensor_id;sensor_type;location;lat;lon;timestamp;temperature;humidity
54461;DHT22;40371;49.414;11.010;2023-03-08T00:00:07;4.90;99.90
54461;DHT22;40371;49.414;11.010;2023-03-08T00:02:36;4.90;99.90
54461;DHT22;40371;49.414;11.010;2023-03-08T00:05:02;4.90;99.90
54461;DHT22;40371;49.414;11.010;2023-03-08T00:07:28;5.00;99.90
54461;DHT22;40371;49.414;11.010;2023-03-08T00:09:54;5.00;99.90
54461;DHT22;40371;49.414;11.010;2023-03-08T00:12:19;5.00;99.90
54461;DHT22;40371;49.414;11.010;2023-03-08T00:14:48;5.00;99.90
54461;DHT22;40371;49.414;11.010;2023-03-08T00:17:14;5.00;99.90
54461;DHT22;40371;49.414;11.010;2023-03-08T00:19:40;5.00;99.90
54461;DHT22;40371;49.414;11.010;2023-03-08T00:22:05;5.00;99.90
54461;DHT22;40371;49.414;11.010;2023-03-08T00:24:31;5.00;99.90
54461;DHT22;40371;49.414;11.010;2023-03-08T00:26:57;5.00;99.90
54461;DHT22;40371;49.414;11.010;2023-03-08T00:29:22;5.00;99.90
54461;DHT22;40371;49.414;11.010;2023-03-08T00:31:48;5.00;99.90
54461;DHT22;40371;49.414;11.010;2023-03-08T00:34:14;5.00;99.90
54461;DHT22;40371;49.414;11.010;2023-03-08T00:36:40;5.00;99.90
54461;DHT22;40371;49.414;11.010;2023-03-08T00:39:07;5.00;99.90
54461;DHT22;40371;49.414;11.010;2023-03-08T00:41:32;5.10;99.90
54461;DHT22;40371;49.414;11.010;2023-03-08T00:43:58;5.10;99.90
54461;DHT22;40371;49.414;11.010;2023-03-08T00:46:24;5.10;99.90
54461;DHT22;40371;49.414;11.010;2023-03-08T00:48:50;5.10;99.90
54461;DHT22;40371;49.414;11.010;2023-03-08T00:51:17;5.10;99.90
54461;DHT22;40371;49.414;11.010;2023-03-08T00:53:45;5.10;99.90
54461;DHT22;40371;49.414;11.010;2023-03-08T00:56:11;5.10;99.90
54461;DHT22;40371;49.414;11.010;2023-03-08T00:58:39;5.10;99.90
54461;DHT22;40371;49.414;11.010;2023-03-08T01:01:06;5.10;99.90
54461;DHT22;40371;49.414;11.010;2023-03-08T01:03:32;5.20;99.90
54461;DHT22;40371;49.414;11.010;2023-03-08T01:05:58;5.20;99.90
54461;DHT22;40371;49.414;11.010;2023-03-08T01:08:25;5.20;99.90
54461;DHT22;40371;49.414;11.010;2023-03-08T01:10:53;5.20;99.90
54461;DHT22;40371;49.414;11.010;2023-03-08T01:13:22;5.20;99.90
54461;DHT22;40371;49.414;11.010;2023-03-08T01:15:48;5.10;99.90
54461;DHT22;40371;49.414;11.010;2023-03-08T01:18:14;5.20;99.90
54461;DHT22;40371;49.414;11.010;2023-03-08T01:20:40;5.20;99.90
54461;DHT22;40371;49.414;11.010;2023-03-08T01:23:06;5.10;99.90
54461;DHT22;40371;49.414;11.010;2023-03-08T01:25:31;5.20;99.90
54461;DHT22;40371;49.414;11.010;2023-03-08T01:27:57;5.20;99.90
54461;DHT22;40371;49.414;11.010;2023-03-08T01:30:23;5.20;99.90
54461;DHT22;40371;49.414;11.010;2023-03-08T01:32:49;5.20;99.90
54461;DHT22;40371;49.414;11.010;2023-03-08T01:35:14;5.20;99.90
54461;DHT22;40371;49.414;11.010;2023-03-08T01:37:40;5.20;99.90
54461;DHT22;40371;49.414;11.010;2023-03-08T01:40:07;5.20;99.90
54461;DHT22;40371;49.414;11.010;2023-03-08T01:42:33;5.20;99.90
54461;DHT22;40371;49.414;11.010;2023-03-08T01:45:01;5.20;99.90
54461;DHT22;40371;49.414;11.010;2023-03-08T01:47:32;5.20;99.90
54461;DHT22;40371;49.414;11.010;2023-03-08T01:50:13;5.20;99.90
54461;DHT22;40371;49.414;11.010;2023-03-08T01:52:47;5.20;99.90
54461;DHT22;40371;49.414;11.010;2023-03-08T01:55:16;5.20;99.90
54461;DHT22;40371;49.414;11.010;2023-03-08T01:57:47;5.20;99.90
54461;DHT22;40371;49.414;11.010;2023-03-08T02:00:19;5.20;99.90
54461;DHT22;40371;49.414;11.010;2023-03-08T02:03:00;5.10;99.90
54461;DHT22;40371;49.414;11.010;2023-03-08T02:05:28;5.10;99.90
54461;DHT22;40371;49.414;11.010;2023-03-08T02:07:59;5.10;99.90
54461;DHT22;40371;49.414;11.010;2023-03-08T02:10:30;5.00;99.90
54461;DHT22;40371;49.414;11.010;2023-03-08T02:12:56;5.00;99.90
54461;DHT22;40371;49.414;11.010;2023-03-08T02:15:23;5.00;99.90
54461;DHT22;40371;49.414;11.010;2023-03-08T02:17:53;5.00;99.90
54461;DHT22;40371;49.414;11.010;2023-03-08T02:20:25;4.90;99.90
54461;DHT22;40371;49.414;11.010;2023-03-08T02:22:52;4.90;99.90
54461;DHT22;40371;49.414;11.010;2023-03-08T02:25:24;4.90;99.90
54461;DHT22;40371;49.414;11.010;2023-03-08T02:27:51;4.90;99.90
54461;DHT22;40371;49.414;11.010;2023-03-08T02:30:23;4.80;99.90
54461;DHT22;40371;49.414;11.010;2023-03-08T02:32:49;4.80;99.90
54461;DHT22;40371;49.414;11.010;2023-03-08T02:35:15;4.80;99.90
54461;DHT22;40371;49.414;11.010;2023-03-08T02:37:41;4.70;99.90
54461;DHT22;40371;49.414;11.010;2023-03-08T02:40:08;4.60;99.90
54461;DHT22;40371;49.414;11.010;2023-03-08T02:42:33;4.60;99.90
54461;DHT22;40371;49.414;11.010;2023-03-08T02:44:59;4.50;99.90
54461;DHT22;40371;49.414;11.010;2023-03-08T02:47:25;4.50;99.90
54461;DHT22;40371;49.414;11.010;2023-03-08T02:49:51;4.50;99.90
54461;DHT22;40371;49.414;11.010;2023-03-08T02:52:16;4.50;99.90
54461;DHT22;40371;49.414;11.010;2023-03-08T02:54:42;4.50;99.90
54461;DHT22;40371;49.414;11.010;2023-03-08T02:57:08;4.50;99.90
54461;DHT22;40371;49.414;11.010;2023-03-08T02:59:35;4.50;99.90
54461;DHT22;40371;49.414;11.010;2023-03-08T03:02:02;4.50;99.90
54461;DHT22;40371;49.414;11.010;2023-03-08T03:04:32;4.40;99.90
54461;DHT22;40371;49.414;11.010;2023-03-08T03:06:58;4.30;99.90
54461;DHT22;40371;49.414;11.010;2023-03-08T03:09:25;4.40;99.90
54461;DHT22;40371;49.414;11.010;2023-03-08T03:11:51;4.30;99.90
54461;DHT22;40371;49.414;11.010;2023-03-08T03:14:16;4.30;99.90
54461;DHT22;40371;49.414;11.010;2023-03-08T03:16:44;4.30;99.90
54461;DHT22;40371;49.414;11.010;2023-03-08T03:19:10;4.20;99.90
54461;DHT22;40371;49.414;11.010;2023-03-08T03:21:38;4.20;99.90
54461;DHT22;40371;49.414;11.010;2023-03-08T03:24:04;4.10;99.90
54461;DHT22;40371;49.414;11.010;2023-03-08T03:26:50;4.10;99.90
54461;DHT22;40371;49.414;11.010;2023-03-08T03:29:17;4.00;99.90
54461;DHT22;40371;49.414;11.010;2023-03-08T03:31:44;4.00;99.90
54461;DHT22;40371;49.414;11.010;2023-03-08T03:34:11;4.00;99.90
54461;DHT22;40371;49.414;11.010;2023-03-08T03:36:38;4.00;99.90
54461;DHT22;40371;49.414;11.010;2023-03-08T03:39:04;3.90;99.90
54461;DHT22;40371;49.414;11.010;2023-03-08T03:41:32;3.80;99.90
54461;DHT22;40371;49.414;11.010;2023-03-08T03:44:03;3.80;99.90
54461;DHT22;40371;49.414;11.010;2023-03-08T03:46:29;3.70;99.90
54461;DHT22;40371;49.414;11.010;2023-03-08T03:48:56;3.60;99.90
54461;DHT22;40371;49.414;11.010;2023-03-08T03:51:24;3.50;99.90
54461;DHT22;40371;49.414;11.010;2023-03-08T03:53:59;3.40;99.90
54461;DHT22;40371;49.414;11.010;2023-03-08T03:56:26;3.40;99.90
54461;DHT22;40371;49.414;11.010;2023-03-08T03:58:55;3.40;99.90
54461;DHT22;40371;49.414;11.010;2023-03-08T04:01:25;3.30;99.90
54461;DHT22;40371;49.414;11.010;2023-03-08T04:03:56;3.30;99.90
54461;DHT22;40371;49.414;11.010;2023-03-08T04:06:25;3.40;99.90
54461;DHT22;40371;49.414;11.010;2023-03-08T04:08:53;3.20;99.90
54461;DHT22;40371;49.414;11.010;2023-03-08T04:11:21;3.20;99.90
54461;DHT22;40371;49.414;11.010;2023-03-08T04:13:47;3.30;99.90
54461;DHT22;40371;49.414;11.010;2023-03-08T04:16:16;3.30;99.90
54461;DHT22;40371;49.414;11.010;2023-03-08T04:18:43;3.30;99.90
54461;DHT22;40371;49.414;11.010;2023-03-08T04:21:09;3.40;99.90
54461;DHT22;40371;49.414;11.010;2023-03-08T04:23:35;3.40;99.90
54461;DHT22;40371;49.414;11.010;2023-03-08T04:26:04;3.40;99.90
54461;DHT22;40371;49.414;11.010;2023-03-08T04:28:30;3.40;99.90
54461;DHT22;40371;49.414;11.010;2023-03-08T04:30:58;3.40;99.90
54461;DHT22;40371;49.414;11.010;2023-03-08T04:33:24;3.40;99.90
54461;DHT22;40371;49.414;11.010;2023-03-08T04:35:50;3.40;99.90
54461;DHT22;40371;49.414;11.010;2023-03-08T04:38:18;3.40;99.90
54461;DHT22;40371;49.414;11.010;2023-03-08T04:40:50;3.40;99.90
54461;DHT22;40371;49.414;11.010;2023-03-08T04:43:46;3.50;99.90
54461;DHT22;40371;49.414;11.010;2023-03-08T04:46:13;3.40;99.90
54461;DHT22;40371;49.414;11.010;2023-03-08T04:48:39;3.50;99.90
54461;DHT22;40371;49.414;11.010;2023-03-08T04:51:06;3.60;99.90
54461;DHT22;40371;49.414;11.010;2023-03-08T04:53:32;3.60;99.90
54461;DHT22;40371;49.414;11.010;2023-03-08T04:55:59;3.50;99.90
54461;DHT22;40371;49.414;11.010;2023-03-08T04:58:27;3.50;99.90
54461;DHT22;40371;49.414;11.010;2023-03-08T05:00:53;3.50;99.90
54461;DHT22;40371;49.414;11.010;2023-03-08T05:03:18;3.50;99.90
54461;DHT22;40371;49.414;11.010;2023-03-08T05:05:46;3.50;99.90
54461;DHT22;40371;49.414;11.010;2023-03-08T05:08:12;3.50;99.90
54461;DHT22;40371;49.414;11.010;2023-03-08T05:10:37;3.50;99.90
54461;DHT22;40371;49.414;11.010;2023-03-08T05:13:03;3.60;99.90
54461;DHT22;40371;49.414;11.010;2023-03-08T05:15:29;3.60;99.90
54461;DHT22;40371;49.414;11.010;2023-03-08T05:17:54;3.70;99.90
54461;DHT22;40371;49.414;11.010;2023-03-08T05:20:20;3.70;99.90
54461;DHT22;40371;49.414;11.010;2023-03-08T05:22:46;3.70;99.90
54461;DHT22;40371;49.414;11.010;2023-03-08T05:25:11;3.70;99.90
54461;DHT22;40371;49.414;11.010;2023-03-08T05:27:37;3.80;99.90
54461;DHT22;40371;49.414;11.010;2023-03-08T05:30:05;3.70;99.90
54461;DHT22;40371;49.414;11.010;2023-03-08T05:32:31;3.70;99.90
54461;DHT22;40371;49.414;11.010;2023-03-08T05:34:56;3.70;99.90
54461;DHT22;40371;49.414;11.010;2023-03-08T05:37:31;3.80;99.90
54461;DHT22;40371;49.414;11.010;2023-03-08T05:40:00;3.70;99.90
54461;DHT22;40371;49.414;11.010;2023-03-08T05:42:30;3.60;99.90
54461;DHT22;40371;49.414;11.010;2023-03-08T05:44:57;3.60;99.90
54461;DHT22;40371;49.414;11.010;2023-03-08T05:47:27;3.60;99.90
54461;DHT22;40371;49.414;11.010;2023-03-08T05:49:54;3.60;99.90
54461;DHT22;40371;49.414;11.010;2023-03-08T05:52:21;3.60;99.90
54461;DHT22;40371;49.414;11.010;2023-03-08T05:54:48;3.70;99.90
54461;DHT22;40371;49.414;11.010;2023-03-08T05:57:17;3.70;99.90
54461;DHT22;40371;49.414;11.010;2023-03-08T05:59:43;3.60;99.90
54461;DHT22;40371;49.414;11.010;2023-03-08T06:02:12;3.60;99.90
54461;DHT22;40371;49.414;11.010;2023-03-08T06:04:42;3.70;99.90
54461;DHT22;40371;49.414;11.010;2023-03-08T06:07:09;3.80;99.90
54461;DHT22;40371;49.414;11.010;2023-03-08T06:09:39;3.80;99.90
54461;DHT22;40371;49.414;11.010;2023-03-08T06:12:08;3.80;99.90
54461;DHT22;40371;49.414;11.010;2023-03-08T06:14:34;3.90;99.90
54461;DHT22;40371;49.414;11.010;2023-03-08T06:17:00;4.00;99.90
54461;DHT22;40371;49.414;11.010;2023-03-08T06:19:29;4.10;99.90
54461;DHT22;40371;49.414;11.010;2023-03-08T06:21:56;4.00;99.90
54461;DHT22;40371;49.414;11.010;2023-03-08T06:24:22;3.80;99.90
54461;DHT22;40371;49.414;11.010;2023-03-08T06:26:47;3.70;99.90
54461;DHT22;40371;49.414;11.010;2023-03-08T06:29:14;3.90;99.90
54461;DHT22;40371;49.414;11.010;2023-03-08T06:31:40;3.80;99.90
54461;DHT22;40371;49.414;11.010;2023-03-08T06:34:06;4.00;99.90
54461;DHT22;40371;49.414;11.010;2023-03-08T06:36:32;4.10;99.90
54461;DHT22;40371;49.414;11.010;2023-03-08T06:38:58;4.20;99.90
54461;DHT22;40371;49.414;11.010;2023-03-08T06:41:24;4.20;99.90
54461;DHT22;40371;49.414;11.010;2023-03-08T06:43:53;4.20;99.90
54461;DHT22;40371;49.414;11.010;2023-03-08T06:46:18;4.20;99.90
54461;DHT22;40371;49.414;11.010;2023-03-08T06:48:45;4.10;99.90
54461;DHT22;40371;49.414;11.010;2023-03-08T06:51:11;4.10;99.90
54461;DHT22;40371;49.414;11.010;2023-03-08T06:53:39;4.20;99.90
54461;DHT22;40371;49.414;11.010;2023-03-08T06:56:07;4.10;99.90
54461;DHT22;40371;49.414;11.010;2023-03-08T06:58:35;4.20;99.90
54461;DHT22;40371;49.414;11.010;2023-03-08T07:01:01;4.10;99.90
54461;DHT22;40371;49.414;11.010;2023-03-08T07:03:29;4.00;99.90
54461;DHT22;40371;49.414;11.010;2023-03-08T07:05:59;4.10;99.90
54461;DHT22;40371;49.414;11.010;2023-03-08T07:08:25;4.20;99.90
54461;DHT22;40371;49.414;11.010;2023-03-08T07:10:51;4.30;99.90
54461;DHT22;40371;49.414;11.010;2023-03-08T07:13:16;4.10;99.90
54461;DHT22;40371;49.414;11.010;2023-03-08T07:15:42;4.10;99.90
54461;DHT22;40371;49.414;11.010;2023-03-08T07:18:07;4.00;99.90
54461;DHT22;40371;49.414;11.010;2023-03-08T07:20:33;4.10;99.90
54461;DHT22;40371;49.414;11.010;2023-03-08T07:22:59;4.20;99.90
54461;DHT22;40371;49.414;11.010;2023-03-08T07:25:27;4.10;99.90
54461;DHT22;40371;49.414;11.010;2023-03-08T07:27:53;4.30;99.90
54461;DHT22;40371;49.414;11.010;2023-03-08T07:30:19;4.30;99.90
54461;DHT22;40371;49.414;11.010;2023-03-08T07:32:45;4.30;99.90
54461;DHT22;40371;49.414;11.010;2023-03-08T07:35:13;4.10;99.90
54461;DHT22;40371;49.414;11.010;2023-03-08T07:37:39;4.20;99.90
54461;DHT22;40371;49.414;11.010;2023-03-08T07:40:05;4.00;99.90
54461;DHT22;40371;49.414;11.010;2023-03-08T07:42:31;4.10;99.90
54461;DHT22;40371;49.414;11.010;2023-03-08T07:45:12;4.20;99.90
54461;DHT22;40371;49.414;11.010;2023-03-08T07:47:38;4.30;99.90
54461;DHT22;40371;49.414;11.010;2023-03-08T07:50:05;4.40;99.90
54461;DHT22;40371;49.414;11.010;2023-03-08T07:52:31;4.30;99.90
54461;DHT22;40371;49.414;11.010;2023-03-08T07:54:57;4.60;99.90
54461;DHT22;40371;49.414;11.010;2023-03-08T07:57:22;4.50;99.90
54461;DHT22;40371;49.414;11.010;2023-03-08T07:59:51;4.50;99.90
54461;DHT22;40371;49.414;11.010;2023-03-08T08:02:17;4.40;99.90
54461;DHT22;40371;49.414;11.010;2023-03-08T08:04:43;4.50;99.90
54461;DHT22;40371;49.414;11.010;2023-03-08T08:07:14;4.70;99.90
54461;DHT22;40371;49.414;11.010;2023-03-08T08:09:39;4.50;99.90
54461;DHT22;40371;49.414;11.010;2023-03-08T08:12:06;4.50;99.90
54461;DHT22;40371;49.414;11.010;2023-03-08T08:14:32;4.40;99.90
54461;DHT22;40371;49.414;11.010;2023-03-08T08:16:57;4.40;99.90
54461;DHT22;40371;49.414;11.010;2023-03-08T08:19:23;4.30;99.90
54461;DHT22;40371;49.414;11.010;2023-03-08T08:21:49;4.40;99.90
54461;DHT22;40371;49.414;11.010;2023-03-08T08:24:15;4.30;99.90
54461;DHT22;40371;49.414;11.010;2023-03-08T08:26:41;4.30;99.90
54461;DHT22;40371;49.414;11.010;2023-03-08T08:29:07;4.40;99.90
54461;DHT22;40371;49.414;11.010;2023-03-08T08:31:33;4.40;99.90
54461;DHT22;40371;49.414;11.010;2023-03-08T08:33:59;4.20;99.90
54461;DHT22;40371;49.414;11.010;2023-03-08T08:36:25;4.50;99.90
54461;DHT22;40371;49.414;11.010;2023-03-08T08:38:51;4.70;99.90
54461;DHT22;40371;49.414;11.010;2023-03-08T08:41:19;4.50;99.90
54461;DHT22;40371;49.414;11.010;2023-03-08T08:43:46;4.70;99.90
54461;DHT22;40371;49.414;11.010;2023-03-08T08:46:13;4.70;99.90
54461;DHT22;40371;49.414;11.010;2023-03-08T08:48:39;4.80;99.90
54461;DHT22;40371;49.414;11.010;2023-03-08T08:51:06;4.90;99.90
54461;DHT22;40371;49.414;11.010;2023-03-08T08:53:32;5.00;99.90
54461;DHT22;40371;49.414;11.010;2023-03-08T08:55:58;4.90;99.90
54461;DHT22;40371;49.414;11.010;2023-03-08T08:58:24;4.60;99.90
54461;DHT22;40371;49.414;11.010;2023-03-08T09:00:51;4.60;99.90
54461;DHT22;40371;49.414;11.010;2023-03-08T09:03:16;4.60;99.90
54461;DHT22;40371;49.414;11.010;2023-03-08T09:05:43;4.80;99.90
54461;DHT22;40371;49.414;11.010;2023-03-08T09:08:10;4.90;99.90
54461;DHT22;40371;49.414;11.010;2023-03-08T09:10:37;4.60;99.90
54461;DHT22;40371;49.414;11.010;2023-03-08T09:13:04;4.70;99.90
54461;DHT22;40371;49.414;11.010;2023-03-08T09:15:30;4.90;99.90
54461;DHT22;40371;49.414;11.010;2023-03-08T09:17:56;4.80;99.90
54461;DHT22;40371;49.414;11.010;2023-03-08T09:20:21;4.50;99.90
54461;DHT22;40371;49.414;11.010;2023-03-08T09:22:47;4.70;99.90
54461;DHT22;40371;49.414;11.010;2023-03-08T09:25:13;4.40;99.90
54461;DHT22;40371;49.414;11.010;2023-03-08T09:27:40;4.20;99.90
54461;DHT22;40371;49.414;11.010;2023-03-08T09:30:09;4.40;99.90
54461;DHT22;40371;49.414;11.010;2023-03-08T09:32:35;4.70;99.90
54461;DHT22;40371;49.414;11.010;2023-03-08T09:35:01;4.90;99.90
54461;DHT22;40371;49.414;11.010;2023-03-08T09:40:23;4.10;99.90
54461;DHT22;40371;49.414;11.010;2023-03-08T09:42:50;4.00;99.90
54461;DHT22;40371;49.414;11.010;2023-03-08T09:45:21;3.90;99.90
54461;DHT22;40371;49.414;11.010;2023-03-08T09:50:43;4.10;99.90
54461;DHT22;40371;49.414;11.010;2023-03-08T09:56:10;3.70;99.90
54461;DHT22;40371;49.414;11.010;2023-03-08T09:58:52;3.50;99.90
54461;DHT22;40371;49.414;11.010;2023-03-08T10:01:48;3.50;99.90
54461;DHT22;40371;49.414;11.010;2023-03-08T10:04:37;3.70;99.90
54461;DHT22;40371;49.414;11.010;2023-03-08T10:10:08;3.30;99.90
54461;DHT22;40371;49.414;11.010;2023-03-08T10:13:02;3.10;99.90
54461;DHT22;40371;49.414;11.010;2023-03-08T10:15:32;3.40;99.90
54461;DHT22;40371;49.414;11.010;2023-03-08T10:18:21;3.50;99.90
54461;DHT22;40371;49.414;11.010;2023-03-08T10:20:51;3.50;99.90
54461;DHT22;40371;49.414;11.010;2023-03-08T10:23:22;3.30;99.90
54461;DHT22;40371;49.414;11.010;2023-03-08T10:25:49;3.10;99.90
54461;DHT22;40371;49.414;11.010;2023-03-08T10:28:18;3.40;99.90
54461;DHT22;40371;49.414;11.010;2023-03-08T10:33:15;3.40;99.90
54461;DHT22;40371;49.414;11.010;2023-03-08T10:38:33;3.60;99.90
54461;DHT22;40371;49.414;11.010;2023-03-08T10:41:05;3.70;99.90
54461;DHT22;40371;49.414;11.010;2023-03-08T10:43:49;3.60;99.90
54461;DHT22;40371;49.414;11.010;2023-03-08T10:46:24;3.70;99.90
54461;DHT22;40371;49.414;11.010;2023-03-08T10:48:50;3.30;99.90
54461;DHT22;40371;49.414;11.010;2023-03-08T10:51:19;3.40;99.90
54461;DHT22;40371;49.414;11.010;2023-03-08T10:54:03;3.30;99.90
54461;DHT22;40371;49.414;11.010;2023-03-08T10:56:35;3.40;99.90
54461;DHT22;40371;49.414;11.010;2023-03-08T10:59:02;3.40;99.90
54461;DHT22;40371;49.414;11.010;2023-03-08T11:01:30;3.60;99.90
54461;DHT22;40371;49.414;11.010;2023-03-08T11:04:17;3.70;99.90
54461;DHT22;40371;49.414;11.010;2023-03-08T11:06:43;3.50;99.90
54461;DHT22;40371;49.414;11.010;2023-03-08T11:09:27;3.50;99.90
54461;DHT22;40371;49.414;11.010;2023-03-08T11:11:55;3.50;99.90
54461;DHT22;40371;49.414;11.010;2023-03-08T11:14:22;3.50;99.90
54461;DHT22;40371;49.414;11.010;2023-03-08T11:17:03;3.70;99.90
54461;DHT22;40371;49.414;11.010;2023-03-08T11:33:38;4.00;99.90
54461;DHT22;40371;49.414;11.010;2023-03-08T11:38:50;3.80;99.90
54461;DHT22;40371;49.414;11.010;2023-03-08T11:44:31;4.00;99.90
54461;DHT22;40371;49.414;11.010;2023-03-08T11:55:38;4.20;99.90
54461;DHT22;40371;49.414;11.010;2023-03-08T12:00:55;4.00;99.90
54461;DHT22;40371;49.414;11.010;2023-03-08T12:03:29;4.00;99.90
54461;DHT22;40371;49.414;11.010;2023-03-08T12:05:58;4.10;99.90
54461;DHT22;40371;49.414;11.010;2023-03-08T12:08:35;4.30;99.90
54461;DHT22;40371;49.414;11.010;2023-03-08T12:11:35;4.50;99.90
54461;DHT22;40371;49.414;11.010;2023-03-08T12:19:42;4.50;99.90
54461;DHT22;40371;49.414;11.010;2023-03-08T12:24:52;4.40;99.90
54461;DHT22;40371;49.414;11.010;2023-03-08T12:27:35;4.50;99.90
54461;DHT22;40371;49.414;11.010;2023-03-08T12:32:37;4.90;99.90
54461;DHT22;40371;49.414;11.010;2023-03-08T12:38:23;4.70;99.90
54461;DHT22;40371;49.414;11.010;2023-03-08T12:40:52;4.70;99.90
54461;DHT22;40371;49.414;11.010;2023-03-08T12:45:45;4.70;99.90
54461;DHT22;40371;49.414;11.010;2023-03-08T12:48:22;4.70;99.90
54461;DHT22;40371;49.414;11.010;2023-03-08T12:51:06;4.70;99.90
54461;DHT22;40371;49.414;11.010;2023-03-08T12:53:36;4.70;99.90
54461;DHT22;40371;49.414;11.010;2023-03-08T13:02:00;4.90;99.90
54461;DHT22;40371;49.414;11.010;2023-03-08T13:04:27;4.90;99.90
54461;DHT22;40371;49.414;11.010;2023-03-08T13:14:58;5.30;99.90
54461;DHT22;40371;49.414;11.010;2023-03-08T13:17:33;5.30;99.90
54461;DHT22;40371;49.414;11.010;2023-03-08T13:20:19;5.50;99.90
54461;DHT22;40371;49.414;11.010;2023-03-08T13:23:01;5.60;99.90
54461;DHT22;40371;49.414;11.010;2023-03-08T13:28:21;5.80;99.90
54461;DHT22;40371;49.414;11.010;2023-03-08T13:30:53;5.90;99.90
54461;DHT22;40371;49.414;11.010;2023-03-08T13:33:32;6.00;99.90
54461;DHT22;40371;49.414;11.010;2023-03-08T13:36:06;6.00;99.90
54461;DHT22;40371;49.414;11.010;2023-03-08T13:38:38;6.10;99.90
54461;DHT22;40371;49.414;11.010;2023-03-08T13:41:04;6.20;99.90
54461;DHT22;40371;49.414;11.010;2023-03-08T13:43:31;6.30;99.90
54461;DHT22;40371;49.414;11.010;2023-03-08T13:46:03;6.30;99.90
54461;DHT22;40371;49.414;11.010;2023-03-08T13:48:32;6.40;99.90
54461;DHT22;40371;49.414;11.010;2023-03-08T13:51:00;6.50;99.90
54461;DHT22;40371;49.414;11.010;2023-03-08T13:53:28;6.70;99.90
54461;DHT22;40371;49.414;11.010;2023-03-08T13:55:57;6.80;99.90
54461;DHT22;40371;49.414;11.010;2023-03-08T14:01:17;7.10;99.90
54461;DHT22;40371;49.414;11.010;2023-03-08T14:03:44;7.20;99.90
54461;DHT22;40371;49.414;11.010;2023-03-08T14:06:23;7.10;99.90
54461;DHT22;40371;49.414;11.010;2023-03-08T14:08:50;7.20;99.90
54461;DHT22;40371;49.414;11.010;2023-03-08T14:11:25;7.30;99.90
54461;DHT22;40371;49.414;11.010;2023-03-08T14:13:53;7.40;99.90
54461;DHT22;40371;49.414;11.010;2023-03-08T14:16:37;7.40;99.90
54461;DHT22;40371;49.414;11.010;2023-03-08T14:21:53;7.50;99.90
54461;DHT22;40371;49.414;11.010;2023-03-08T14:24:22;7.50;99.90
54461;DHT22;40371;49.414;11.010;2023-03-08T14:26:57;7.60;99.90
54461;DHT22;40371;49.414;11.010;2023-03-08T14:29:32;7.90;99.90
54461;DHT22;40371;49.414;11.010;2023-03-08T14:32:23;8.00;99.90
54461;DHT22;40371;49.414;11.010;2023-03-08T14:34:47;7.90;99.90
54461;DHT22;40371;49.414;11.010;2023-03-08T14:37:23;7.80;99.90
54461;DHT22;40371;49.414;11.010;2023-03-08T14:39:55;7.90;99.90
54461;DHT22;40371;49.414;11.010;2023-03-08T14:42:26;7.90;99.90
54461;DHT22;40371;49.414;11.010;2023-03-08T14:44:59;7.90;99.90
54461;DHT22;40371;49.414;11.010;2023-03-08T14:47:27;7.90;99.90
54461;DHT22;40371;49.414;11.010;2023-03-08T14:52:44;8.10;99.90
54461;DHT22;40371;49.414;11.010;2023-03-08T14:57:48;8.30;99.90
54461;DHT22;40371;49.414;11.010;2023-03-08T15:00:15;8.30;99.90
54461;DHT22;40371;49.414;11.010;2023-03-08T15:02:42;8.40;99.90
54461;DHT22;40371;49.414;11.010;2023-03-08T15:05:12;8.40;99.90
54461;DHT22;40371;49.414;11.010;2023-03-08T15:07:38;8.50;99.90
54461;DHT22;40371;49.414;11.010;2023-03-08T15:10:05;8.60;99.90
54461;DHT22;40371;49.414;11.010;2023-03-08T15:12:31;8.60;99.90
54461;DHT22;40371;49.414;11.010;2023-03-08T15:14:57;8.70;99.90
54461;DHT22;40371;49.414;11.010;2023-03-08T15:17:23;8.70;99.90
54461;DHT22;40371;49.414;11.010;2023-03-08T15:19:48;8.70;99.90
54461;DHT22;40371;49.414;11.010;2023-03-08T15:22:14;8.80;99.90
54461;DHT22;40371;49.414;11.010;2023-03-08T15:24:41;8.70;99.90
54461;DHT22;40371;49.414;11.010;2023-03-08T15:27:12;8.80;99.90
54461;DHT22;40371;49.414;11.010;2023-03-08T15:29:38;8.80;99.90
54461;DHT22;40371;49.414;11.010;2023-03-08T15:32:04;8.80;99.90
54461;DHT22;40371;49.414;11.010;2023-03-08T15:34:29;8.80;99.90
54461;DHT22;40371;49.414;11.010;2023-03-08T15:36:55;8.80;99.90
54461;DHT22;40371;49.414;11.010;2023-03-08T15:39:21;8.90;99.90
54461;DHT22;40371;49.414;11.010;2023-03-08T15:41:47;8.90;99.90
54461;DHT22;40371;49.414;11.010;2023-03-08T15:44:12;8.90;99.90
54461;DHT22;40371;49.414;11.010;2023-03-08T15:46:38;8.90;99.90
54461;DHT22;40371;49.414;11.010;2023-03-08T15:49:04;8.90;99.90
54461;DHT22;40371;49.414;11.010;2023-03-08T15:51:35;8.90;99.90
54461;DHT22;40371;49.414;11.010;2023-03-08T15:54:02;8.80;99.90
54461;DHT22;40371;49.414;11.010;2023-03-08T15:56:28;8.90;99.90
54461;DHT22;40371;49.414;11.010;2023-03-08T15:58:56;8.90;99.90
54461;DHT22;40371;49.414;11.010;2023-03-08T16:01:27;8.80;99.90
54461;DHT22;40371;49.414;11.010;2023-03-08T16:03:54;8.90;99.90
54461;DHT22;40371;49.414;11.010;2023-03-08T16:06:21;8.90;99.90
54461;DHT22;40371;49.414;11.010;2023-03-08T16:08:47;9.00;99.90
54461;DHT22;40371;49.414;11.010;2023-03-08T16:11:15;8.90;99.90
54461;DHT22;40371;49.414;11.010;2023-03-08T16:13:42;8.80;99.90
54461;DHT22;40371;49.414;11.010;2023-03-08T16:16:07;8.70;99.90
54461;DHT22;40371;49.414;11.010;2023-03-08T16:18:35;8.70;99.90
54461;DHT22;40371;49.414;11.010;2023-03-08T16:21:06;8.60;99.90
54461;DHT22;40371;49.414;11.010;2023-03-08T16:23:33;8.60;99.90
54461;DHT22;40371;49.414;11.010;2023-03-08T16:26:04;8.50;99.90
54461;DHT22;40371;49.414;11.010;2023-03-08T16:28:30;8.50;99.90
54461;DHT22;40371;49.414;11.010;2023-03-08T16:30:56;8.50;99.90
54461;DHT22;40371;49.414;11.010;2023-03-08T16:33:24;8.50;99.90
54461;DHT22;40371;49.414;11.010;2023-03-08T16:35:50;8.60;99.90
54461;DHT22;40371;49.414;11.010;2023-03-08T16:38:17;8.50;99.90
54461;DHT22;40371;49.414;11.010;2023-03-08T16:40:42;8.50;99.90
54461;DHT22;40371;49.414;11.010;2023-03-08T16:43:08;8.40;99.90
54461;DHT22;40371;49.414;11.010;2023-03-08T16:45:34;8.50;99.90
54461;DHT22;40371;49.414;11.010;2023-03-08T16:48:00;8.50;99.90
54461;DHT22;40371;49.414;11.010;2023-03-08T16:50:25;8.50;99.90
54461;DHT22;40371;49.414;11.010;2023-03-08T16:52:56;8.40;99.90
54461;DHT22;40371;49.414;11.010;2023-03-08T16:55:23;8.40;99.90
54461;DHT22;40371;49.414;11.010;2023-03-08T16:57:48;8.40;99.90
54461;DHT22;40371;49.414;11.010;2023-03-08T17:00:15;8.40;99.90
54461;DHT22;40371;49.414;11.010;2023-03-08T17:02:41;8.40;99.90
54461;DHT22;40371;49.414;11.010;2023-03-08T17:05:07;8.40;99.90
54461;DHT22;40371;49.414;11.010;2023-03-08T17:07:36;8.30;99.90
54461;DHT22;40371;49.414;11.010;2023-03-08T17:10:02;8.40;99.90